createdAt,value
2017-11-28T00:00:03.441Z,64.36
2017-11-28T00:02:29.565Z,64.48
2017-11-28T00:05:00.801Z,64.89
2017-11-28T00:07:27.476Z,64.59
2017-11-28T00:09:53.650Z,64.83
2017-11-28T00:12:19.759Z,65.13
2017-11-28T00:14:45.892Z,65.29
2017-11-28T00:17:12.185Z,65.49
2017-11-28T00:19:38.377Z,65.82
2017-11-28T00:22:04.483Z,65.62
2017-11-28T00:24:30.522Z,66.00
2017-11-28T00:26:56.798Z,65.50
2017-11-28T00:29:22.944Z,65.82
2017-11-28T00:31:49.113Z,65.33
2017-11-28T00:34:15.251Z,65.43
2017-11-28T00:36:41.340Z,65.44
2017-11-28T00:39:07.420Z,65.63
2017-11-28T00:41:33.591Z,65.41
2017-11-28T00:43:59.748Z,64.93
2017-11-28T00:46:25.949Z,64.49
2017-11-28T00:48:52.054Z,64.58
2017-11-28T00:51:18.262Z,64.65
2017-11-28T00:53:44.629Z,64.50
2017-11-28T00:56:10.858Z,64.80
2017-11-28T00:58:36.939Z,63.97
2017-11-28T01:01:03.060Z,63.71
2017-11-28T01:03:29.183Z,64.28
2017-11-28T01:05:55.201Z,64.32
2017-11-28T01:08:21.505Z,64.11
2017-11-28T01:10:47.664Z,64.29
2017-11-28T01:13:13.720Z,63.73
2017-11-28T01:15:39.893Z,64.36
2017-11-28T01:18:06.029Z,64.25
2017-11-28T01:20:32.195Z,64.34
2017-11-28T01:22:58.259Z,64.59
2017-11-28T01:25:24.315Z,64.46
2017-11-28T01:27:50.736Z,64.47
2017-11-28T01:30:16.936Z,65.05
2017-11-28T01:32:43.031Z,65.30
2017-11-28T01:35:09.068Z,65.35
2017-11-28T01:37:35.295Z,65.88
2017-11-28T01:40:01.528Z,65.93
2017-11-28T01:42:27.606Z,66.20
2017-11-28T01:44:53.859Z,65.60
2017-11-28T01:47:19.999Z,65.98
2017-11-28T01:49:46.087Z,66.66
2017-11-28T01:52:12.161Z,66.09
2017-11-28T01:54:38.260Z,66.16
2017-11-28T01:57:04.528Z,66.46
2017-11-28T01:59:30.675Z,66.92
2017-11-28T02:01:56.699Z,67.16
2017-11-28T02:04:23.006Z,66.92
2017-11-28T02:06:49.100Z,67.54
2017-11-28T02:09:15.213Z,67.97
2017-11-28T02:11:41.409Z,68.26
2017-11-28T02:14:11.194Z,68.00
2017-11-28T02:16:37.327Z,67.87
2017-11-28T02:19:03.488Z,67.99
2017-11-28T02:21:29.615Z,68.42
2017-11-28T02:23:55.764Z,68.51
2017-11-28T02:26:21.990Z,68.13
2017-11-28T02:28:48.179Z,68.44
2017-11-28T02:31:14.280Z,68.60
2017-11-28T02:33:42.710Z,68.65
2017-11-28T02:36:08.799Z,68.84
2017-11-28T02:38:35.332Z,68.94
2017-11-28T02:41:09.535Z,68.91
2017-11-28T02:43:35.741Z,68.67
2017-11-28T02:46:01.935Z,68.80
2017-11-28T02:48:28.027Z,68.68
2017-11-28T02:50:55.078Z,68.96
2017-11-28T02:53:21.185Z,69.09
2017-11-28T02:55:53.398Z,69.17
2017-11-28T02:58:20.450Z,69.07
2017-11-28T03:00:52.580Z,69.06
2017-11-28T03:03:18.784Z,69.31
2017-11-28T03:05:44.888Z,69.55
2017-11-28T03:08:11.006Z,69.23
2017-11-28T03:10:47.848Z,69.30
2017-11-28T03:13:16.418Z,68.95
2017-11-28T03:18:51.494Z,68.99
2017-11-28T03:21:19.672Z,69.14
2017-11-28T03:26:53.486Z,68.25
2017-11-28T03:29:21.781Z,68.63
2017-11-28T03:31:47.956Z,68.40
2017-11-28T03:34:14.113Z,68.30
2017-11-28T03:36:40.469Z,68.84
2017-11-28T03:39:06.645Z,68.86
2017-11-28T03:41:32.802Z,69.33
2017-11-28T03:43:59.497Z,68.81
2017-11-28T03:46:25.696Z,68.09
2017-11-28T03:48:52.925Z,68.46
2017-11-28T03:51:19.191Z,68.83
2017-11-28T03:53:45.280Z,68.64
2017-11-28T03:56:11.821Z,68.78
2017-11-28T03:58:38.041Z,69.35
2017-11-28T04:01:04.150Z,69.41
2017-11-28T04:03:30.289Z,69.72
2017-11-28T04:05:56.621Z,69.64
2017-11-28T04:08:22.923Z,69.77
2017-11-28T04:10:49.137Z,69.92
2017-11-28T04:13:15.569Z,70.21
2017-11-28T04:15:41.825Z,70.17
2017-11-28T04:18:08.054Z,70.12
2017-11-28T04:20:34.401Z,69.67
2017-11-28T04:23:01.118Z,69.39
2017-11-28T04:25:27.511Z,69.40
2017-11-28T04:27:53.626Z,68.99
2017-11-28T04:30:19.668Z,69.15
2017-11-28T04:32:45.844Z,69.45
2017-11-28T04:35:11.980Z,70.04
2017-11-28T04:37:37.983Z,69.72
2017-11-28T04:40:04.123Z,69.81
2017-11-28T04:42:30.229Z,70.43
2017-11-28T04:44:56.408Z,70.08
2017-11-28T04:47:22.543Z,69.56
2017-11-28T04:49:49.027Z,69.69
2017-11-28T04:52:15.220Z,69.81
2017-11-28T04:54:41.571Z,70.17
2017-11-28T04:57:07.701Z,70.33
2017-11-28T04:59:33.983Z,70.25
2017-11-28T05:02:00.160Z,70.44
2017-11-28T05:04:26.271Z,70.87
2017-11-28T05:06:52.449Z,70.84
2017-11-28T05:09:18.542Z,71.09
2017-11-28T05:11:44.709Z,71.28
2017-11-28T05:14:11.238Z,70.90
2017-11-28T05:16:37.674Z,70.94
2017-11-28T05:19:06.402Z,71.19
2017-11-28T05:21:32.624Z,71.27
2017-11-28T05:23:58.782Z,71.48
2017-11-28T05:26:24.991Z,70.80
2017-11-28T05:28:51.033Z,70.57
2017-11-28T05:31:17.316Z,70.48
2017-11-28T05:33:43.489Z,69.99
2017-11-28T05:36:09.603Z,70.12
2017-11-28T05:38:35.720Z,70.28
2017-11-28T05:41:02.042Z,70.79
2017-11-28T05:43:28.168Z,71.21
2017-11-28T05:45:54.308Z,71.19
2017-11-28T05:48:20.539Z,71.41
2017-11-28T05:50:46.747Z,71.90
2017-11-28T05:53:13.007Z,72.10
2017-11-28T05:55:39.122Z,71.89
2017-11-28T05:58:05.332Z,71.82
2017-11-28T06:00:31.673Z,71.76
2017-11-28T06:02:57.827Z,72.15
2017-11-28T06:05:23.972Z,72.37
2017-11-28T06:07:50.260Z,72.68
2017-11-28T06:10:16.546Z,72.77
2017-11-28T06:12:42.612Z,72.65
2017-11-28T06:15:08.749Z,72.57
2017-11-28T06:17:34.932Z,72.47
2017-11-28T06:20:01.276Z,72.26
2017-11-28T06:22:27.428Z,72.21
2017-11-28T06:24:53.613Z,72.22
2017-11-28T06:27:19.872Z,72.35
2017-11-28T06:29:46.130Z,72.47
2017-11-28T06:32:12.498Z,72.39
2017-11-28T06:34:38.791Z,72.23
2017-11-28T06:37:04.985Z,72.02
2017-11-28T06:39:33.097Z,71.99
2017-11-28T06:41:59.230Z,71.86
2017-11-28T06:44:25.343Z,71.66
2017-11-28T06:46:51.831Z,71.83
2017-11-28T06:49:17.998Z,71.75
2017-11-28T06:51:44.427Z,71.73
2017-11-28T06:54:10.751Z,71.52
2017-11-28T06:56:36.864Z,71.61
2017-11-28T06:59:03.224Z,71.46
2017-11-28T07:01:29.370Z,71.23
2017-11-28T07:03:56.984Z,70.99
2017-11-28T07:09:16.077Z,71.23
2017-11-28T07:11:42.282Z,70.83
2017-11-28T07:14:09.261Z,70.75
2017-11-28T07:16:35.368Z,70.61
2017-11-28T07:19:01.461Z,70.41
2017-11-28T07:21:27.611Z,70.43
2017-11-28T07:23:53.914Z,70.52
2017-11-28T07:26:20.779Z,70.21
2017-11-28T07:28:47.095Z,69.77
2017-11-28T07:31:13.708Z,69.90
2017-11-28T07:33:39.794Z,69.71
2017-11-28T07:36:06.894Z,69.79
2017-11-28T07:38:34.102Z,68.99
2017-11-28T07:41:01.683Z,69.12
2017-11-28T07:43:28.349Z,68.91
2017-11-28T07:45:54.879Z,68.64
2017-11-28T07:48:21.599Z,68.37
2017-11-28T07:50:48.279Z,67.99
2017-11-28T07:53:15.285Z,68.15
2017-11-28T07:55:41.952Z,67.69
2017-11-28T07:58:08.662Z,67.35
2017-11-28T08:00:35.360Z,67.07
2017-11-28T08:03:01.864Z,66.46
2017-11-28T08:05:28.206Z,66.58
2017-11-28T08:07:54.788Z,66.52
2017-11-28T08:10:20.929Z,65.35
2017-11-28T08:12:47.027Z,65.30
2017-11-28T08:15:13.187Z,65.31
2017-11-28T08:17:39.266Z,64.83
2017-11-28T08:20:05.952Z,64.65
2017-11-28T08:22:32.281Z,64.69
2017-11-28T08:24:58.683Z,65.24
2017-11-28T08:27:25.074Z,64.31
2017-11-28T08:29:51.576Z,64.17
2017-11-28T08:32:17.818Z,64.52
2017-11-28T08:34:44.013Z,64.92
2017-11-28T08:37:10.415Z,64.86
2017-11-28T08:39:36.595Z,65.37
2017-11-28T08:42:02.852Z,64.66
2017-11-28T08:44:29.221Z,64.21
2017-11-28T08:46:55.515Z,64.57
2017-11-28T08:49:21.635Z,64.03
2017-11-28T08:51:48.370Z,63.63
2017-11-28T08:54:14.653Z,63.46
2017-11-28T08:56:40.775Z,62.73
2017-11-28T08:59:06.876Z,62.07
2017-11-28T09:01:33.121Z,62.89
2017-11-28T09:03:59.361Z,62.00
2017-11-28T09:06:25.503Z,63.01
2017-11-28T09:08:51.990Z,62.51
2017-11-28T09:11:18.025Z,62.09
2017-11-28T09:13:44.451Z,63.20
2017-11-28T09:19:04.627Z,62.41
2017-11-28T09:21:38.049Z,62.67
2017-11-28T09:24:04.371Z,62.73
2017-11-28T09:26:30.757Z,63.14
2017-11-28T09:31:49.997Z,63.83
2017-11-28T09:34:16.422Z,64.44
2017-11-28T09:36:42.514Z,64.69
2017-11-28T09:42:01.939Z,65.24
2017-11-28T09:44:28.056Z,65.57
2017-11-28T09:46:54.200Z,66.07
2017-11-28T09:49:20.281Z,66.52
2017-11-28T09:51:53.515Z,66.44
2017-11-28T09:54:19.929Z,65.35
2017-11-28T09:56:46.006Z,65.53
2017-11-28T09:59:12.095Z,65.40
2017-11-28T10:01:38.319Z,64.97
2017-11-28T10:04:04.849Z,65.06
2017-11-28T10:06:31.457Z,64.48
2017-11-28T10:08:57.904Z,65.20
2017-11-28T10:11:23.977Z,64.46
2017-11-28T10:14:37.865Z,64.25
2017-11-28T10:17:04.101Z,64.46
2017-11-28T10:19:30.155Z,63.99
2017-11-28T10:21:56.256Z,64.13
2017-11-28T10:24:22.407Z,63.92
2017-11-28T10:26:49.106Z,64.54
2017-11-28T10:29:15.600Z,64.73
2017-11-28T10:31:41.682Z,64.57
2017-11-28T10:34:08.096Z,64.38
2017-11-28T10:36:34.200Z,64.53
2017-11-28T10:39:00.252Z,64.77
2017-11-28T10:41:26.811Z,64.99
2017-11-28T10:43:52.816Z,64.81
2017-11-28T10:46:19.062Z,65.56
2017-11-28T10:48:45.201Z,65.34
2017-11-28T10:51:13.466Z,64.83
2017-11-28T10:53:39.560Z,65.01
2017-11-28T10:56:05.767Z,65.63
2017-11-28T10:58:32.417Z,64.35
2017-11-28T11:00:58.650Z,64.86
2017-11-28T11:03:25.008Z,64.66
2017-11-28T11:05:51.091Z,64.83
2017-11-28T11:08:17.198Z,64.40
2017-11-28T11:10:54.342Z,65.03
2017-11-28T11:13:20.944Z,64.97
2017-11-28T11:15:47.813Z,65.07
2017-11-28T11:21:06.351Z,64.98
2017-11-28T11:23:32.404Z,64.87
2017-11-28T11:25:58.598Z,65.74
2017-11-28T11:28:24.719Z,64.94
2017-11-28T11:30:52.399Z,66.71
2017-11-28T11:33:18.486Z,65.20
2017-11-28T11:35:44.569Z,66.47
2017-11-28T11:38:10.866Z,67.54
2017-11-28T11:40:37.885Z,67.74
2017-11-28T11:43:04.325Z,68.82
2017-11-28T11:45:30.567Z,69.45
2017-11-28T11:47:56.605Z,68.96
2017-11-28T11:50:22.682Z,69.01
2017-11-28T11:52:48.875Z,69.27
2017-11-28T11:55:15.145Z,69.86
2017-11-28T11:57:41.338Z,70.12
2017-11-28T12:00:07.562Z,70.52
2017-11-28T12:02:34.272Z,69.61
2017-11-28T12:05:00.636Z,70.53
2017-11-28T12:07:26.836Z,70.78
2017-11-28T12:15:21.544Z,70.43
2017-11-28T12:17:47.985Z,70.85
2017-11-28T12:20:16.554Z,71.47
2017-11-28T12:22:43.191Z,72.30
2017-11-28T12:25:09.676Z,72.75
2017-11-28T12:27:38.103Z,71.39
2017-11-28T12:30:04.461Z,72.11
2017-11-28T12:32:30.887Z,72.07
2017-11-28T12:34:57.241Z,71.79
2017-11-28T12:37:23.572Z,71.84
2017-11-28T12:39:50.086Z,71.47
2017-11-28T12:42:16.517Z,71.74
2017-11-28T12:44:43.316Z,71.30
2017-11-28T12:47:09.571Z,71.58
2017-11-28T12:49:36.117Z,70.70
2017-11-28T12:52:02.641Z,70.54
2017-11-28T12:54:29.012Z,70.22
2017-11-28T12:56:55.738Z,70.05
2017-11-28T12:59:22.309Z,69.58
2017-11-28T13:01:48.808Z,69.48
2017-11-28T13:04:15.293Z,68.73
2017-11-28T13:06:41.713Z,68.84
2017-11-28T13:09:08.832Z,68.01
2017-11-28T13:11:35.412Z,68.43
2017-11-28T13:14:02.217Z,68.07
2017-11-28T13:16:28.771Z,67.84
2017-11-28T13:18:55.429Z,66.77
2017-11-28T13:21:22.739Z,66.89
2017-11-28T13:23:49.108Z,67.05
2017-11-28T13:26:15.457Z,67.00
2017-11-28T13:28:41.966Z,66.35
2017-11-28T13:31:09.214Z,66.59
2017-11-28T13:33:35.519Z,66.33
2017-11-28T13:38:51.970Z,66.19
2017-11-28T13:41:18.372Z,66.16
2017-11-28T13:43:45.121Z,67.08
2017-11-28T13:46:22.013Z,67.31
2017-11-28T13:49:00.561Z,66.98
2017-11-28T13:51:27.011Z,66.84
2017-11-28T13:53:53.346Z,67.30
2017-11-28T13:56:20.201Z,67.66
2017-11-28T13:58:54.123Z,68.28
2017-11-28T14:01:20.475Z,68.13
2017-11-28T14:03:48.917Z,68.70
2017-11-28T14:06:16.538Z,68.67
2017-11-28T14:11:15.080Z,68.31
2017-11-28T14:13:41.422Z,69.35
2017-11-28T14:16:07.839Z,69.65
2017-11-28T14:18:36.377Z,69.61
2017-11-28T14:24:12.140Z,69.71
2017-11-28T14:26:53.841Z,69.53
2017-11-28T14:29:21.286Z,69.56
2017-11-28T14:37:42.306Z,70.54
2017-11-28T14:40:09.929Z,70.60
2017-11-28T14:45:25.147Z,70.33
2017-11-28T14:47:54.313Z,70.73
2017-11-28T15:04:34.000Z,70.75
2017-11-28T15:07:07.971Z,70.85
2017-11-28T15:13:05.892Z,70.81
2017-11-28T15:15:44.972Z,70.62
2017-11-28T15:18:27.245Z,70.62
2017-11-28T15:23:48.571Z,70.71
2017-11-28T15:26:17.668Z,70.97
2017-11-28T15:28:50.015Z,71.10
2017-11-28T15:31:16.585Z,71.12
2017-11-28T15:33:43.377Z,71.35
2017-11-28T15:36:11.996Z,71.51
2017-11-28T15:38:38.381Z,71.75
2017-11-28T15:41:05.841Z,71.51
2017-11-28T15:43:32.514Z,71.69
2017-11-28T15:45:58.900Z,71.77
2017-11-28T15:48:26.264Z,72.05
2017-11-28T15:50:52.951Z,72.21
2017-11-28T15:53:19.075Z,72.34
2017-11-28T15:55:46.732Z,72.45
2017-11-28T15:58:12.858Z,72.53
2017-11-28T16:00:39.713Z,72.65
2017-11-28T16:03:06.120Z,72.58
2017-11-28T16:05:33.296Z,72.66
2017-11-28T16:07:59.497Z,72.56
2017-11-28T16:10:25.684Z,72.52
2017-11-28T16:12:53.714Z,72.71
2017-11-28T16:15:19.982Z,72.79
2017-11-28T16:17:46.086Z,72.91
2017-11-28T16:20:13.846Z,72.96
2017-11-28T16:22:40.240Z,73.10
2017-11-28T16:25:06.515Z,72.82
2017-11-28T16:27:32.688Z,72.42
2017-11-28T16:29:59.207Z,72.67
2017-11-28T16:32:25.287Z,72.33
2017-11-28T16:34:51.437Z,72.48
2017-11-28T16:37:17.571Z,72.65
2017-11-28T16:39:44.365Z,72.69
2017-11-28T16:42:11.876Z,72.50
2017-11-28T16:44:37.941Z,72.82
2017-11-28T16:47:04.076Z,72.70
2017-11-28T16:49:30.213Z,72.94
2017-11-28T16:51:56.465Z,73.38
2017-11-28T16:54:22.607Z,73.12
2017-11-28T16:56:49.063Z,73.96
2017-11-28T16:59:15.352Z,74.18
2017-11-28T17:01:42.595Z,74.60
2017-11-28T17:04:09.121Z,74.78
2017-11-28T17:06:35.532Z,75.11
2017-11-28T17:09:01.797Z,75.25
2017-11-28T17:11:28.107Z,75.99
2017-11-28T17:13:54.226Z,75.82
2017-11-28T17:16:20.473Z,76.38
2017-11-28T17:18:49.687Z,75.88
2017-11-28T17:21:19.438Z,76.15
2017-11-28T17:23:45.695Z,76.34
2017-11-28T17:26:11.778Z,76.38
2017-11-28T17:28:38.139Z,76.52
2017-11-28T17:31:04.285Z,76.78
2017-11-28T17:33:32.899Z,76.30
2017-11-28T17:35:59.358Z,76.43
2017-11-28T17:38:25.617Z,76.65
2017-11-28T17:40:52.223Z,76.87
2017-11-28T17:43:18.638Z,76.51
2017-11-28T17:45:44.780Z,77.36
2017-11-28T17:48:11.206Z,78.25
2017-11-28T17:50:37.606Z,78.04
2017-11-28T17:53:03.740Z,79.21
2017-11-28T17:55:31.381Z,79.26
2017-11-28T17:57:57.631Z,78.55
2017-11-28T18:00:23.836Z,79.33
2017-11-28T18:02:50.286Z,80.18
2017-11-28T18:05:16.337Z,79.87
2017-11-28T18:07:42.527Z,80.45
2017-11-28T18:10:09.016Z,81.53
2017-11-28T18:12:35.067Z,81.51
2017-11-28T18:15:01.276Z,82.90
2017-11-28T18:17:27.693Z,83.02
2017-11-28T18:19:53.828Z,82.45
2017-11-28T18:22:21.433Z,82.88
2017-11-28T18:24:47.737Z,83.54
2017-11-28T18:27:13.923Z,83.74
2017-11-28T18:29:40.163Z,83.89
2017-11-28T18:32:06.839Z,84.09
2017-11-28T18:34:32.905Z,84.75
2017-11-28T18:36:59.836Z,84.27
2017-11-28T18:39:26.353Z,84.53
2017-11-28T18:41:54.364Z,85.71
2017-11-28T18:44:21.905Z,85.53
2017-11-28T18:46:50.596Z,85.85
2017-11-28T18:49:17.460Z,86.27
2017-11-28T18:51:50.873Z,86.19
2017-11-28T18:54:17.336Z,85.85
2017-11-28T18:56:43.978Z,86.54
2017-11-28T18:59:10.680Z,85.92
2017-11-28T19:01:37.245Z,85.31
2017-11-28T19:04:04.227Z,86.73
2017-11-28T19:06:30.752Z,86.30
2017-11-28T19:09:05.610Z,86.32
2017-11-28T19:11:32.312Z,86.09
2017-11-28T19:13:58.410Z,86.09
2017-11-28T19:16:24.635Z,86.12
2017-11-28T19:18:51.335Z,86.99
2017-11-28T19:21:17.879Z,86.10
2017-11-28T19:23:44.317Z,87.28
2017-11-28T19:26:11.625Z,86.67
2017-11-28T19:28:38.158Z,87.59
2017-11-28T19:31:04.639Z,87.56
2017-11-28T19:33:31.547Z,87.34
2017-11-28T19:35:58.876Z,87.84
2017-11-28T19:38:25.437Z,87.57
2017-11-28T19:40:56.943Z,88.70
2017-11-28T19:43:23.454Z,88.10
2017-11-28T19:45:49.765Z,87.96
2017-11-28T19:48:16.191Z,88.22
2017-11-28T19:50:42.691Z,88.05
2017-11-28T19:53:08.916Z,88.58
2017-11-28T19:55:35.102Z,88.73
2017-11-28T19:58:02.363Z,88.87
2017-11-28T20:00:28.626Z,88.60
2017-11-28T20:02:55.948Z,88.86
2017-11-28T20:05:22.272Z,88.38
2017-11-28T20:07:48.501Z,87.94
2017-11-28T20:10:15.035Z,88.57
2017-11-28T20:12:43.170Z,88.90
2017-11-28T20:15:09.344Z,89.33
2017-11-28T20:17:36.083Z,89.54
2017-11-28T20:20:02.355Z,89.95
2017-11-28T20:22:28.600Z,89.86
2017-11-28T20:24:54.874Z,89.73
2017-11-28T20:27:21.078Z,89.92
2017-11-28T20:29:47.426Z,90.11
2017-11-28T20:32:13.763Z,89.41
2017-11-28T20:34:40.031Z,89.41
2017-11-28T20:37:06.281Z,89.53
2017-11-28T20:39:32.604Z,89.63
2017-11-28T20:41:59.055Z,89.43
2017-11-28T20:44:25.621Z,89.42
2017-11-28T20:46:52.057Z,89.49
2017-11-28T20:49:24.099Z,89.61
2017-11-28T20:51:50.569Z,89.34
2017-11-28T20:54:16.746Z,89.54
2017-11-28T20:56:45.212Z,89.20
2017-11-28T20:59:11.805Z,88.99
2017-11-28T21:01:38.308Z,89.13
2017-11-28T21:04:05.536Z,88.58
2017-11-28T21:06:39.369Z,88.78
2017-11-28T21:09:06.240Z,88.73
2017-11-28T21:11:33.124Z,88.97
2017-11-28T21:14:00.244Z,88.98
2017-11-28T21:16:26.765Z,88.98
2017-11-28T21:18:54.208Z,88.98
2017-11-28T21:21:20.544Z,89.29
2017-11-28T21:23:47.155Z,89.50
2017-11-28T21:26:13.741Z,89.81
2017-11-28T21:28:40.354Z,89.88
2017-11-28T21:31:07.138Z,90.02
2017-11-28T21:44:10.491Z,90.09
2017-11-28T21:54:31.120Z,89.98
2017-11-28T21:57:00.266Z,90.01
2017-11-28T22:08:10.246Z,90.98
2017-11-28T22:21:03.295Z,91.51
2017-11-28T22:23:38.801Z,91.90
2017-11-28T22:26:10.533Z,91.52
2017-11-28T22:31:15.075Z,91.47
2017-11-28T22:33:45.309Z,91.28
2017-11-28T22:49:12.130Z,91.71
2017-11-28T22:51:43.068Z,91.52
2017-11-28T22:54:09.299Z,91.71
2017-11-28T22:56:35.738Z,91.62
2017-11-28T22:59:01.841Z,91.39
2017-11-28T23:01:27.961Z,91.35
2017-11-28T23:03:54.165Z,91.37
2017-11-28T23:06:20.479Z,91.33
2017-11-28T23:08:46.921Z,91.44
2017-11-28T23:11:14.073Z,91.01
2017-11-28T23:13:52.630Z,91.05
2017-11-28T23:16:18.977Z,90.53
2017-11-28T23:18:45.015Z,90.56
2017-11-28T23:21:11.120Z,90.79
2017-11-28T23:23:37.299Z,90.52
2017-11-28T23:26:03.416Z,90.72
2017-11-28T23:28:29.452Z,90.70
2017-11-28T23:30:55.508Z,90.47
2017-11-28T23:33:21.590Z,90.61
2017-11-28T23:35:47.651Z,90.62
2017-11-28T23:38:13.798Z,90.81
2017-11-28T23:40:40.034Z,90.87
2017-11-28T23:43:06.133Z,90.96
2017-11-28T23:45:32.258Z,91.02
2017-11-28T23:47:58.477Z,91.26
2017-11-28T23:50:24.740Z,91.58
2017-11-28T23:52:50.908Z,91.61
2017-11-28T23:55:17.045Z,91.66
2017-11-28T23:57:43.169Z,91.96
